createdAt,value
2023-02-27T00:01:45.131Z,-2.90
2023-02-27T00:04:11.603Z,-2.89
2023-02-27T00:06:38.097Z,-2.76
2023-02-27T00:09:04.597Z,-2.79
2023-02-27T00:11:31.244Z,-2.76
2023-02-27T00:13:58.197Z,-2.77
2023-02-27T00:16:24.755Z,-2.82
2023-02-27T00:18:51.228Z,-2.84
2023-02-27T00:21:17.712Z,-2.82
2023-02-27T00:23:44.159Z,-2.83
2023-02-27T00:26:10.630Z,-2.88
2023-02-27T00:28:37.712Z,-2.91
2023-02-27T00:31:04.853Z,-2.88
2023-02-27T00:33:31.417Z,-2.92
2023-02-27T00:36:00.148Z,-2.93
2023-02-27T00:38:27.988Z,-2.94
2023-02-27T00:40:57.280Z,-2.99
2023-02-27T00:43:23.847Z,-2.95
2023-02-27T00:45:50.369Z,-2.98
2023-02-27T00:48:16.909Z,-3.05
2023-02-27T00:50:44.098Z,-3.06
2023-02-27T00:53:10.623Z,-3.05
2023-02-27T00:55:37.250Z,-3.04
2023-02-27T00:58:03.763Z,-3.10
2023-02-27T01:00:31.071Z,-3.07
2023-02-27T01:02:57.591Z,-3.13
2023-02-27T01:05:24.124Z,-3.13
2023-02-27T01:07:51.144Z,-3.15
2023-02-27T01:10:17.855Z,-3.14
2023-02-27T01:12:44.372Z,-3.11
2023-02-27T01:15:11.581Z,-3.10
2023-02-27T01:17:38.393Z,-3.09
2023-02-27T01:20:06.945Z,-3.16
2023-02-27T01:22:34.194Z,-3.17
2023-02-27T01:25:00.869Z,-3.14
2023-02-27T01:27:27.795Z,-3.16
2023-02-27T01:29:54.330Z,-3.14
2023-02-27T01:32:23.061Z,-3.21
2023-02-27T01:34:49.785Z,-3.17
2023-02-27T01:37:16.357Z,-3.19
2023-02-27T01:39:42.847Z,-3.24
2023-02-27T01:42:25.220Z,-3.26
2023-02-27T01:45:23.054Z,-3.19
2023-02-27T01:47:52.903Z,-3.27
2023-02-27T01:50:20.121Z,-3.28
2023-02-27T01:52:52.891Z,-3.27
2023-02-27T01:55:20.389Z,-3.33
2023-02-27T01:57:48.738Z,-3.27
2023-02-27T02:00:15.681Z,-3.25
2023-02-27T02:02:49.637Z,-3.23
2023-02-27T02:05:16.159Z,-3.30
2023-02-27T02:07:44.572Z,-3.29
2023-02-27T02:10:12.409Z,-3.29
2023-02-27T02:12:40.528Z,-3.29
2023-02-27T02:15:09.034Z,-3.33
2023-02-27T02:17:57.163Z,-3.39
2023-02-27T02:20:56.849Z,-3.39
2023-02-27T02:23:42.029Z,-3.43
2023-02-27T02:26:15.371Z,-3.38
2023-02-27T02:28:44.824Z,-3.45
2023-02-27T02:31:35.738Z,-3.57
2023-02-27T02:34:29.854Z,-3.52
2023-02-27T02:37:31.051Z,-3.55
2023-02-27T02:39:57.573Z,-3.63
2023-02-27T02:42:53.340Z,-3.57
2023-02-27T02:45:40.474Z,-3.58
2023-02-27T02:48:27.801Z,-3.59
2023-02-27T02:51:08.093Z,-3.64
2023-02-27T02:54:01.180Z,-3.66
2023-02-27T02:56:39.608Z,-3.68
2023-02-27T02:59:32.277Z,-3.66
2023-02-27T03:02:06.818Z,-3.71
2023-02-27T03:04:52.155Z,-3.71
2023-02-27T03:07:25.893Z,-3.64
2023-02-27T03:10:16.508Z,-3.71
2023-02-27T03:12:49.516Z,-3.71
2023-02-27T03:15:21.184Z,-3.77
2023-02-27T03:17:53.974Z,-3.78
2023-02-27T03:20:33.729Z,-3.80
2023-02-27T03:23:07.049Z,-3.77
2023-02-27T03:25:34.562Z,-3.75
2023-02-27T03:28:09.108Z,-3.77
2023-02-27T03:30:49.699Z,-3.84
2023-02-27T03:33:30.074Z,-3.79
2023-02-27T03:36:10.506Z,-3.79
2023-02-27T03:39:00.194Z,-3.79
2023-02-27T03:41:37.575Z,-3.78
2023-02-27T03:44:31.620Z,-3.83
2023-02-27T03:46:59.077Z,-3.78
2023-02-27T03:49:25.794Z,-3.86
2023-02-27T03:51:52.367Z,-3.80
2023-02-27T03:54:27.614Z,-3.87
2023-02-27T03:57:03.228Z,-3.82
2023-02-27T03:59:31.790Z,-3.83
2023-02-27T04:02:00.190Z,-3.87
2023-02-27T04:04:28.739Z,-3.82
2023-02-27T04:07:50.537Z,-3.84
2023-02-27T04:10:29.099Z,-3.90
2023-02-27T04:13:15.828Z,-3.91
2023-02-27T04:16:15.726Z,-3.94
2023-02-27T04:18:56.734Z,-3.95
2023-02-27T04:21:37.301Z,-3.93
2023-02-27T04:24:27.983Z,-4.00
2023-02-27T04:27:02.491Z,-3.97
2023-02-27T04:29:49.786Z,-4.05
2023-02-27T04:32:53.264Z,-4.01
2023-02-27T04:35:32.824Z,-4.05
2023-02-27T04:38:20.330Z,-4.07
2023-02-27T04:40:53.717Z,-4.14
2023-02-27T04:43:24.258Z,-4.09
2023-02-27T04:45:54.274Z,-4.09
2023-02-27T04:48:27.325Z,-4.09
2023-02-27T04:50:59.681Z,-4.16
2023-02-27T04:53:36.737Z,-4.16
2023-02-27T04:56:14.244Z,-4.11
2023-02-27T04:58:54.764Z,-4.09
2023-02-27T05:01:30.236Z,-4.06
2023-02-27T05:04:00.364Z,-4.05
2023-02-27T05:06:30.797Z,-4.11
2023-02-27T05:09:06.646Z,-4.09
2023-02-27T05:11:41.286Z,-4.09
2023-02-27T05:14:19.001Z,-4.04
2023-02-27T05:16:51.923Z,-4.10
2023-02-27T05:19:19.617Z,-4.09
2023-02-27T05:22:04.749Z,-4.11
2023-02-27T05:24:58.224Z,-4.09
2023-02-27T05:27:48.743Z,-4.09
2023-02-27T05:30:26.432Z,-4.05
2023-02-27T05:33:06.687Z,-4.14
2023-02-27T05:35:41.578Z,-4.13
2023-02-27T05:38:28.529Z,-4.12
2023-02-27T05:41:10.169Z,-4.11
2023-02-27T05:43:47.107Z,-4.14
2023-02-27T05:46:19.820Z,-4.13
2023-02-27T05:48:53.808Z,-4.16
2023-02-27T05:51:23.557Z,-4.17
2023-02-27T05:53:57.121Z,-4.13
2023-02-27T05:56:26.836Z,-4.19
2023-02-27T05:59:06.459Z,-4.20
2023-02-27T06:01:33.493Z,-4.14
2023-02-27T06:04:00.091Z,-4.20
2023-02-27T06:06:26.962Z,-4.17
2023-02-27T06:08:53.573Z,-4.19
2023-02-27T06:11:20.020Z,-4.24
2023-02-27T06:13:46.496Z,-4.30
2023-02-27T06:16:15.369Z,-4.19
2023-02-27T06:18:41.888Z,-4.20
2023-02-27T06:21:08.444Z,-4.27
2023-02-27T06:23:34.912Z,-4.27
2023-02-27T06:26:01.430Z,-4.22
2023-02-27T06:28:27.931Z,-4.22
2023-02-27T06:30:57.119Z,-4.17
2023-02-27T06:33:26.794Z,-4.21
2023-02-27T06:35:53.541Z,-4.20
2023-02-27T06:38:20.182Z,-4.20
2023-02-27T06:40:46.791Z,-4.17
2023-02-27T06:43:14.813Z,-4.12
2023-02-27T06:45:41.397Z,-4.06
2023-02-27T06:48:08.022Z,-4.07
2023-02-27T06:50:34.826Z,-3.97
2023-02-27T06:53:01.335Z,-3.96
2023-02-27T06:55:27.887Z,-3.97
2023-02-27T06:57:54.347Z,-3.92
2023-02-27T07:00:21.321Z,-3.90
2023-02-27T07:02:47.817Z,-3.85
2023-02-27T07:05:14.289Z,-3.77
2023-02-27T07:07:40.768Z,-3.65
2023-02-27T07:10:11.729Z,-3.69
2023-02-27T07:12:38.969Z,-3.62
2023-02-27T07:15:06.207Z,-3.58
2023-02-27T07:17:32.739Z,-3.21
2023-02-27T07:19:59.340Z,-2.79
2023-02-27T07:22:25.959Z,-2.45
2023-02-27T07:24:52.396Z,-2.11
2023-02-27T07:27:18.873Z,-1.76
2023-02-27T07:29:45.397Z,-1.28
2023-02-27T07:32:11.946Z,-0.90
2023-02-27T07:34:38.453Z,0.31
2023-02-27T07:37:04.970Z,0.82
2023-02-27T07:39:31.484Z,0.24
2023-02-27T07:41:57.962Z,1.16
2023-02-27T07:44:24.590Z,0.98
2023-02-27T07:46:51.177Z,1.22
2023-02-27T07:49:17.649Z,-0.56
2023-02-27T07:51:44.206Z,-0.32
2023-02-27T07:54:10.784Z,0.03
2023-02-27T07:56:37.271Z,-0.43
2023-02-27T07:59:03.748Z,-0.85
2023-02-27T08:01:30.400Z,-0.37
2023-02-27T08:03:56.989Z,0.12
2023-02-27T08:06:24.059Z,-0.09
2023-02-27T08:08:51.756Z,-0.14
2023-02-27T08:11:18.869Z,0.39
2023-02-27T08:14:02.786Z,0.67
2023-02-27T08:16:30.813Z,0.15
2023-02-27T08:18:57.720Z,0.94
2023-02-27T08:21:24.242Z,0.64
2023-02-27T08:23:50.879Z,0.76
2023-02-27T08:26:17.386Z,0.62
2023-02-27T08:28:44.208Z,0.98
2023-02-27T08:31:10.821Z,0.70
2023-02-27T08:33:37.302Z,0.22
2023-02-27T08:36:04.069Z,0.13
2023-02-27T08:38:30.537Z,0.21
2023-02-27T08:40:57.048Z,0.71
2023-02-27T08:43:23.764Z,1.02
2023-02-27T08:45:50.702Z,1.51
2023-02-27T08:48:18.442Z,1.32
2023-02-27T08:50:46.211Z,1.03
2023-02-27T08:53:13.014Z,1.30
2023-02-27T08:55:39.458Z,2.48
2023-02-27T08:58:05.976Z,1.63
2023-02-27T09:00:32.820Z,2.83
2023-02-27T09:03:00.557Z,1.86
2023-02-27T09:05:28.205Z,2.52
2023-02-27T09:07:54.697Z,1.77
2023-02-27T09:10:21.518Z,2.62
2023-02-27T09:12:49.210Z,3.07
2023-02-27T09:15:15.946Z,3.42
2023-02-27T09:17:42.525Z,3.93
2023-02-27T09:20:10.688Z,3.10
2023-02-27T09:22:37.357Z,2.44
2023-02-27T09:25:04.235Z,3.06
2023-02-27T09:27:30.705Z,2.25
2023-02-27T09:29:57.277Z,2.38
2023-02-27T09:32:24.685Z,1.86
2023-02-27T09:34:51.508Z,1.95
2023-02-27T09:37:19.828Z,1.76
2023-02-27T09:39:46.503Z,0.90
2023-02-27T09:42:20.842Z,1.55
2023-02-27T09:44:57.394Z,1.99
2023-02-27T09:47:40.855Z,2.11
2023-02-27T09:50:16.204Z,2.49
2023-02-27T09:52:42.688Z,3.17
2023-02-27T09:55:19.006Z,2.86
2023-02-27T09:58:01.688Z,2.84
2023-02-27T10:00:39.159Z,2.98
2023-02-27T10:03:27.872Z,4.89
2023-02-27T10:06:07.233Z,4.47
2023-02-27T10:09:03.829Z,3.63
2023-02-27T10:11:46.911Z,2.73
2023-02-27T10:14:23.159Z,2.71
2023-02-27T10:16:51.251Z,3.22
2023-02-27T10:19:26.438Z,3.84
2023-02-27T10:21:55.390Z,3.11
2023-02-27T10:24:40.390Z,4.83
2023-02-27T10:27:14.642Z,4.43
2023-02-27T10:29:41.612Z,4.62
2023-02-27T10:32:26.776Z,4.05
2023-02-27T10:35:02.797Z,5.45
2023-02-27T10:37:30.349Z,6.81
2023-02-27T10:40:00.460Z,6.66
2023-02-27T10:42:32.548Z,6.15
2023-02-27T10:44:59.152Z,5.86
2023-02-27T10:47:26.481Z,4.91
2023-02-27T10:49:54.636Z,3.90
2023-02-27T10:52:21.176Z,3.17
2023-02-27T10:54:48.669Z,4.56
2023-02-27T10:57:26.748Z,5.20
2023-02-27T11:00:00.012Z,5.29
2023-02-27T11:02:41.893Z,5.73
2023-02-27T11:05:21.011Z,6.70
2023-02-27T11:07:47.838Z,4.86
2023-02-27T11:10:14.234Z,5.30
2023-02-27T11:12:43.377Z,4.96
2023-02-27T11:15:15.630Z,4.67
2023-02-27T11:17:43.558Z,3.93
2023-02-27T11:20:33.484Z,5.28
2023-02-27T11:23:14.435Z,5.05
2023-02-27T11:25:41.949Z,4.92
2023-02-27T11:28:29.711Z,6.16
2023-02-27T11:31:04.080Z,7.27
2023-02-27T11:33:36.035Z,6.20
2023-02-27T11:36:03.600Z,4.91
2023-02-27T11:38:32.186Z,6.49
2023-02-27T11:41:01.838Z,7.73
2023-02-27T11:43:30.318Z,5.30
2023-02-27T11:46:24.389Z,6.15
2023-02-27T11:49:00.343Z,5.81
2023-02-27T11:52:05.518Z,6.12
2023-02-27T11:54:43.237Z,6.35
2023-02-27T11:57:33.702Z,6.83
2023-02-27T12:00:06.687Z,7.05
2023-02-27T12:02:46.979Z,7.77
2023-02-27T12:05:54.445Z,5.48
2023-02-27T12:08:34.797Z,6.29
2023-02-27T12:11:14.536Z,6.06
2023-02-27T12:13:45.065Z,7.83
2023-02-27T12:16:32.640Z,10.43
2023-02-27T12:19:10.924Z,10.64
2023-02-27T12:21:43.198Z,8.35
2023-02-27T12:24:28.937Z,9.02
2023-02-27T12:27:20.616Z,8.88
2023-02-27T12:30:08.034Z,8.91
2023-02-27T12:33:13.422Z,7.99
2023-02-27T12:35:43.119Z,8.22
2023-02-27T12:38:15.126Z,8.11
2023-02-27T12:41:16.777Z,7.80
2023-02-27T12:43:53.748Z,6.95
2023-02-27T12:46:39.687Z,7.32
2023-02-27T12:49:24.677Z,6.84
2023-02-27T12:52:04.179Z,7.15
2023-02-27T12:54:41.074Z,7.19
2023-02-27T12:57:37.069Z,7.28
2023-02-27T13:00:12.609Z,6.32
2023-02-27T13:03:09.778Z,5.34
2023-02-27T13:05:59.208Z,6.32
2023-02-27T13:09:01.174Z,6.48
2023-02-27T13:11:46.911Z,4.85
2023-02-27T13:14:29.630Z,4.29
2023-02-27T13:17:02.444Z,6.14
2023-02-27T13:19:43.313Z,4.29
2023-02-27T13:22:26.889Z,4.09
2023-02-27T13:24:57.751Z,3.08
2023-02-27T13:27:35.426Z,2.76
2023-02-27T13:30:05.218Z,3.43
2023-02-27T13:32:45.376Z,2.87
2023-02-27T13:35:17.842Z,3.20
2023-02-27T13:37:58.341Z,2.73
2023-02-27T13:40:41.386Z,2.53
2023-02-27T13:43:28.359Z,2.46
2023-02-27T13:46:00.616Z,2.40
2023-02-27T13:48:45.796Z,1.98
2023-02-27T13:51:38.540Z,2.33
2023-02-27T13:54:14.293Z,2.31
2023-02-27T13:56:46.812Z,2.05
2023-02-27T13:59:20.640Z,2.18
2023-02-27T14:01:57.930Z,2.60
2023-02-27T14:04:27.945Z,2.52
2023-02-27T14:07:02.237Z,2.41
2023-02-27T14:09:37.490Z,2.43
2023-02-27T14:12:06.641Z,1.88
2023-02-27T14:14:35.915Z,1.83
2023-02-27T14:17:03.633Z,1.82
2023-02-27T14:19:42.433Z,1.71
2023-02-27T14:22:11.909Z,1.89
2023-02-27T14:24:49.608Z,1.87
2023-02-27T14:27:25.885Z,1.97
2023-02-27T14:29:57.292Z,2.36
2023-02-27T14:32:29.934Z,2.57
2023-02-27T14:34:56.959Z,2.07
2023-02-27T14:37:26.485Z,1.53
2023-02-27T14:39:55.128Z,1.57
2023-02-27T14:42:36.595Z,1.54
2023-02-27T14:45:04.573Z,1.75
2023-02-27T14:47:34.574Z,1.69
2023-02-27T14:50:03.998Z,1.54
2023-02-27T14:52:40.346Z,1.52
2023-02-27T14:55:37.257Z,1.43
2023-02-27T14:58:19.791Z,1.62
2023-02-27T15:00:59.713Z,1.85
2023-02-27T15:03:32.540Z,1.80
2023-02-27T15:06:01.897Z,1.61
2023-02-27T15:08:31.414Z,1.61
2023-02-27T15:10:59.194Z,1.40
2023-02-27T15:13:29.378Z,1.33
2023-02-27T15:16:18.535Z,1.46
2023-02-27T15:19:16.836Z,1.62
2023-02-27T15:21:49.984Z,1.56
2023-02-27T15:24:49.134Z,1.51
2023-02-27T15:27:21.295Z,1.54
2023-02-27T15:29:59.562Z,1.51
2023-02-27T15:32:30.296Z,3.14
2023-02-27T15:34:58.818Z,2.12
2023-02-27T15:37:29.969Z,1.54
2023-02-27T15:39:58.164Z,1.40
2023-02-27T15:42:29.949Z,1.25
2023-02-27T15:44:58.435Z,1.16
2023-02-27T15:47:28.268Z,1.16
2023-02-27T15:50:00.229Z,1.16
2023-02-27T15:52:32.442Z,1.08
2023-02-27T15:55:05.866Z,1.03
2023-02-27T15:57:33.207Z,0.96
2023-02-27T16:00:00.350Z,1.04
2023-02-27T16:02:39.385Z,0.97
2023-02-27T16:05:06.433Z,0.97
2023-02-27T16:07:42.482Z,0.87
2023-02-27T16:10:21.779Z,0.95
2023-02-27T16:12:48.389Z,0.90
2023-02-27T16:15:24.074Z,0.72
2023-02-27T16:18:02.852Z,0.78
2023-02-27T16:20:36.757Z,0.72
2023-02-27T16:23:09.363Z,0.71
2023-02-27T16:25:35.869Z,0.71
2023-02-27T16:28:02.494Z,0.73
2023-02-27T16:30:29.014Z,0.66
2023-02-27T16:33:00.806Z,0.59
2023-02-27T16:35:27.453Z,0.61
2023-02-27T16:38:00.294Z,0.55
2023-02-27T16:40:27.173Z,0.58
2023-02-27T16:42:53.805Z,0.54
2023-02-27T16:45:24.435Z,0.45
2023-02-27T16:47:53.798Z,0.38
2023-02-27T16:50:31.434Z,0.39
2023-02-27T16:52:57.883Z,0.44
2023-02-27T16:55:25.268Z,0.30
2023-02-27T16:57:52.074Z,0.30
2023-02-27T17:00:19.815Z,0.34
2023-02-27T17:02:49.096Z,0.27
2023-02-27T17:05:16.383Z,0.21
2023-02-27T17:07:43.355Z,0.18
2023-02-27T17:10:16.033Z,0.11
2023-02-27T17:12:43.992Z,0.02
2023-02-27T17:15:10.712Z,0.13
2023-02-27T17:17:37.174Z,0.03
2023-02-27T17:20:07.206Z,-0.05
2023-02-27T17:22:39.537Z,-0.07
2023-02-27T17:25:07.598Z,-0.16
2023-02-27T17:27:34.468Z,-0.08
2023-02-27T17:30:01.107Z,-0.17
2023-02-27T17:32:27.640Z,-0.17
2023-02-27T17:34:55.704Z,-0.09
2023-02-27T17:37:22.925Z,-0.13
2023-02-27T17:39:49.536Z,-0.10
2023-02-27T17:42:18.459Z,-0.22
2023-02-27T17:44:46.169Z,-0.28
2023-02-27T17:47:12.812Z,-0.30
2023-02-27T17:49:39.353Z,-0.43
2023-02-27T17:52:07.194Z,-0.41
2023-02-27T17:54:35.435Z,-0.46
2023-02-27T17:57:02.517Z,-0.52
2023-02-27T17:59:29.008Z,-0.54
2023-02-27T18:01:55.833Z,-0.64
2023-02-27T18:04:22.586Z,-0.62
2023-02-27T18:06:50.542Z,-0.67
2023-02-27T18:09:17.837Z,-0.79
2023-02-27T18:11:44.416Z,-0.73
2023-02-27T18:14:11.002Z,-0.58
2023-02-27T18:16:37.778Z,-0.51
2023-02-27T18:19:06.142Z,-0.59
2023-02-27T18:21:33.473Z,-0.53
2023-02-27T18:24:00.491Z,-0.62
2023-02-27T18:26:31.130Z,-0.63
2023-02-27T18:29:04.271Z,-0.64
2023-02-27T18:31:34.059Z,-0.69
2023-02-27T18:34:01.468Z,-0.77
2023-02-27T18:36:29.840Z,-0.65
2023-02-27T18:38:56.856Z,-0.68
2023-02-27T18:41:23.334Z,-0.55
2023-02-27T18:43:49.958Z,-0.56
2023-02-27T18:46:16.816Z,-0.38
2023-02-27T18:48:44.640Z,-0.42
2023-02-27T18:51:14.444Z,-0.31
2023-02-27T18:53:46.080Z,-0.19
2023-02-27T18:56:15.231Z,-0.18
2023-02-27T18:58:42.417Z,-0.17
2023-02-27T19:01:18.317Z,0.00
2023-02-27T19:03:44.852Z,-0.12
2023-02-27T19:06:11.387Z,-0.25
2023-02-27T19:08:37.882Z,-0.33
2023-02-27T19:11:04.575Z,-0.29
2023-02-27T19:13:31.114Z,-0.13
2023-02-27T19:16:01.439Z,-0.11
2023-02-27T19:18:27.927Z,-0.21
2023-02-27T19:20:56.422Z,-0.09
2023-02-27T19:23:23.760Z,-0.23
2023-02-27T19:25:57.971Z,-0.15
2023-02-27T19:28:24.438Z,-0.11
2023-02-27T19:30:51.021Z,-0.27
2023-02-27T19:33:17.472Z,-0.41
2023-02-27T19:35:43.950Z,-0.54
2023-02-27T19:38:10.488Z,-0.68
2023-02-27T19:40:37.107Z,-0.65
2023-02-27T19:43:03.591Z,-0.66
2023-02-27T19:45:30.173Z,-0.73
2023-02-27T19:47:56.633Z,-0.68
2023-02-27T19:50:23.145Z,-0.80
2023-02-27T19:52:49.610Z,-0.72
2023-02-27T19:55:16.069Z,-0.69
2023-02-27T19:57:42.547Z,-0.57
2023-02-27T20:00:09.779Z,-0.54
2023-02-27T20:02:40.865Z,-0.56
2023-02-27T20:05:07.877Z,-0.54
2023-02-27T20:07:34.392Z,-0.66
2023-02-27T20:10:00.962Z,-0.61
2023-02-27T20:12:28.193Z,-0.55
2023-02-27T20:14:54.646Z,-0.67
2023-02-27T20:17:21.265Z,-0.77
2023-02-27T20:19:47.709Z,-0.67
2023-02-27T20:22:15.570Z,-0.79
2023-02-27T20:24:44.576Z,-0.87
2023-02-27T20:27:11.562Z,-0.82
2023-02-27T20:29:38.087Z,-0.88
2023-02-27T20:32:04.882Z,-0.95
2023-02-27T20:34:31.458Z,-0.89
2023-02-27T20:36:58.065Z,-0.92
2023-02-27T20:39:25.280Z,-0.91
2023-02-27T20:41:51.810Z,-1.01
2023-02-27T20:44:18.309Z,-0.94
2023-02-27T20:46:45.283Z,-1.00
2023-02-27T20:49:15.571Z,-0.89
2023-02-27T20:51:42.696Z,-0.87
2023-02-27T20:54:13.487Z,-0.97
2023-02-27T20:56:41.277Z,-0.97
2023-02-27T20:59:11.607Z,-0.94
2023-02-27T21:01:38.714Z,-1.07
2023-02-27T21:04:05.858Z,-0.96
2023-02-27T21:06:32.509Z,-1.04
2023-02-27T21:09:03.324Z,-1.02
2023-02-27T21:11:31.471Z,-1.14
2023-02-27T21:14:02.035Z,-1.05
2023-02-27T21:16:28.582Z,-1.16
2023-02-27T21:18:56.631Z,-1.19
2023-02-27T21:21:27.436Z,-1.19
2023-02-27T21:23:54.385Z,-1.11
2023-02-27T21:26:26.689Z,-1.29
2023-02-27T21:29:02.349Z,-1.22
2023-02-27T21:31:31.909Z,-1.30
2023-02-27T21:34:00.829Z,-1.31
2023-02-27T21:36:33.233Z,-1.32
2023-02-27T21:39:02.922Z,-1.39
2023-02-27T21:41:30.537Z,-1.33
2023-02-27T21:44:05.548Z,-1.38
2023-02-27T21:46:32.740Z,-1.54
2023-02-27T21:49:00.118Z,-1.52
2023-02-27T21:51:39.383Z,-1.59
2023-02-27T21:54:07.748Z,-1.76
2023-02-27T21:56:34.211Z,-1.82
2023-02-27T21:59:01.856Z,-1.91
2023-02-27T22:01:29.652Z,-1.88
2023-02-27T22:03:56.673Z,-1.89
2023-02-27T22:06:25.289Z,-1.90
2023-02-27T22:08:56.152Z,-1.91
2023-02-27T22:11:24.140Z,-1.91
2023-02-27T22:13:50.652Z,-1.89
2023-02-27T22:16:17.291Z,-1.77
2023-02-27T22:18:44.906Z,-1.79
2023-02-27T22:21:24.010Z,-1.70
2023-02-27T22:23:50.858Z,-1.64
2023-02-27T22:26:24.170Z,-1.63
2023-02-27T22:28:52.256Z,-1.80
2023-02-27T22:31:25.082Z,-1.81
2023-02-27T22:33:54.743Z,-1.87
2023-02-27T22:36:24.614Z,-1.77
2023-02-27T22:38:51.976Z,-1.82
2023-02-27T22:41:24.139Z,-1.69
2023-02-27T22:43:50.971Z,-1.79
2023-02-27T22:46:25.526Z,-1.71
2023-02-27T22:48:56.708Z,-1.84
2023-02-27T22:51:25.263Z,-1.65
2023-02-27T22:53:51.860Z,-1.76
2023-02-27T22:56:18.476Z,-1.85
2023-02-27T22:58:45.366Z,-1.83
2023-02-27T23:01:23.168Z,-1.97
2023-02-27T23:03:51.801Z,-1.83
2023-02-27T23:06:25.098Z,-1.83
2023-02-27T23:08:51.794Z,-1.94
2023-02-27T23:11:19.630Z,-1.93
2023-02-27T23:13:46.675Z,-1.85
2023-02-27T23:16:13.735Z,-1.99
2023-02-27T23:18:42.191Z,-2.05
2023-02-27T23:21:09.875Z,-2.09
2023-02-27T23:23:36.385Z,-2.13
2023-02-27T23:26:04.213Z,-2.08
2023-02-27T23:28:31.268Z,-2.21
2023-02-27T23:30:59.412Z,-2.07
2023-02-27T23:33:27.038Z,-2.31
2023-02-27T23:35:53.704Z,-2.37
2023-02-27T23:38:20.273Z,-2.26
2023-02-27T23:40:46.891Z,-2.21
2023-02-27T23:43:14.694Z,-2.37
2023-02-27T23:45:41.518Z,-2.44
2023-02-27T23:48:08.652Z,-2.38
2023-02-27T23:50:41.469Z,-2.52
2023-02-27T23:53:08.263Z,-2.52
2023-02-27T23:55:36.656Z,-2.64
2023-02-27T23:58:06.513Z,-2.67
